NWS Home NWS Lubbock West Texas Mesonet Latest Conditions as of 0321 AM, Fri Nov 28, 2014

Latest   N   C   S   Daily Sum   3hrΔ   24hrΔ   Soil Data 
Site Map   24hr Precip   72hr Precip   Google Plot


Station Time of Last Temp Dew Pt. RH Wind Direction Wind Speed Wind Gust Max Wind Max Temp Min Temp Max RH Min RH Altimeter 1HR Rain Today's Rain Solar Rad Wind Chill
Abernathy 5ENE  03:15 AM 38 30 74% SW1317 17 mph 221° @ 0315 AM 39 37 75 70 30.18" 0 0.00 0  
Aiken 3WSW  03:15 AM 30 26 88% SW88 14 mph 220° @ 1215 AM 36 30 88 76 30.18" 0 0.00 0 23
Amarillo 15NNW   03:15 AM 41 29 61% S910 19 mph 218° @ 1236 AM 46 41 61 50 30.10" 0 0.00 0  
Amarillo 7SSE  03:15 AM 43 28 57% SW1214 24 mph 236° @ 0246 AM 46 43 57 51 30.13" 0 0.00 0  
Amarillo 9NNE  03:15 AM 42 29 59% SW1013 20 mph 222° @ 0148 AM 50 42 59 45 30.11" 0 0.00 0  
Amherst 1NE  03:15 AM 39 28 66% SW812 17 mph 218° @ 0140 AM 42 39 67 60 30.18" 0 0.00 0  
Andrews 2E  03:15 AM 45 33 63% SW1115 21 mph 200° @ 0205 AM 48 45 63 51 30.23" 0 0.00 0  
Anton 6SSW  03:15 AM 41 30 64% SW1417 21 mph 220° @ 0215 AM 44 40 67 57 30.18" 0 0.00 0  
Aspermont 3NE  03:15 AM 35 31 85% SW55 9 mph 170° @ 0125 AM 39 34 88 76 30.21" 0 0.00 0  
Big Bend NP - Persimmon Gap  03:16 AM 46 33 59% N23 9 mph 33° @ 1202 AM 52 43 65 49 30.29" 0 0.00 0  
Big Lake 1WNW  03:15 AM 44 34 68% S1114 18 mph 188° @ 0301 AM 46 41 70 59 30.28" 0 0.00 0  
Bootleg 11WNW  03:15 AM 42 27 55% SW1520 27 mph 244° @ 0108 AM 43 42 56 54 30.16" 0 0.00 0  
Brownfield 2S  03:15 AM 36 28 73% SW1114 14 mph 233° @ 0300 AM 40 35 73 63 30.21" 0 0.00 0  
Canadian 6E  03:15 AM 38 29 70% S78 14 mph 184° @ 1208 AM 42 38 70 59 30.07" 0 0.00 0  
Caprock Canyons State Park  03:15 AM 48 29 47% SW2935 43 mph 244° @ 0251 AM 52 48 52 42 30.10" 0 0.00 0  
Childress 2NNE  03:15 AM 35 30 83% S1011 15 mph 178° @ 1205 AM 41 34 83 67 30.14" 0 0.00 0 27
Clarendon 2WSW  03:15 AM 45 29 54% SW1518 24 mph 218° @ 0140 AM 47 41 64 51 30.11" 0 0.00 0  
Claude 12SW  03:15 AM 48 28 45% SW1522 31 mph 225° @ 1240 AM 51 48 45 41 30.12" 0 0.00 0  
Coyanosa 2N  03:15 AM 36 29 77% SE77 11 mph 140° @ 1201 AM 45 35 78 55 30.24" 0 0.00 0  
Denver City 7WNW  03:15 AM 35 28 74% SW1011 12 mph 217° @ 0130 AM 38 35 75 64 30.21" 0 0.00 0 28
Dimmitt 2NE  03:15 AM 38 27 63% SW1620 25 mph 221° @ 0130 AM 42 38 64 57 30.15" 0 0.00 0  
Dora NM 2SW  03:15 AM 43 26 51% SW1822 29 mph 239° @ 0235 AM 45 38 61 49 30.19" 0 0.00 0  
Dozier 3W  03:15 AM 34 28 81% E12 9 mph 213° @ 1239 AM 37 33 83 72 30.14" 0 0.00 0  
Floydada 2NNE  03:15 AM 36 28 73% SW1113 21 mph 221° @ 0100 AM 42 36 73 60 30.16" 0 0.00 0  
Friona 2NE  03:15 AM 41 28 59% SW1419 24 mph 236° @ 0205 AM 42 38 62 57 30.16" 0 0.00 0  
Gail 2ESE  03:15 AM 39 32 76% SW810 10 mph 221° @ 0315 AM 41 38 76 69 30.22" 0 0.00 0  
Goodlett 3W  03:15 AM 35 30 84% SE78 10 mph 199° @ 1215 AM 37 34 86 76 30.16" 0 0.00 0 29
Goodnight  03:16 AM 47 29 49% SW911 25 mph 212° @ 0230 AM 50 47 52 44 30.12" 0 0.00 0  
Graham 5SSW  03:15 AM 42 31 64% W914 16 mph 215° @ 1245 AM 47 42 64 51 30.21" 0 0.00 0  
Guadalupe Mtns Natl Park  03:15 AM 57 13 18% W1018 24 mph 211° @ 0208 AM 57 52 26 18 30.28" 0 0.00 0  
Guthrie 10WSW  03:15 AM 40 32 73% S911 13 mph 195° @ 0250 AM 41 37 78 69 30.18" 0 0.00 0  
Hart 3N  03:15 AM 33 27 80% SW79 16 mph 226° @ 0225 AM 38 30 83 71 30.16" 0 0.00 0 27
Haskell 1NW  03:15 AM 41 33 72% S1012 13 mph 178° @ 0115 AM 44 40 74 65 30.20" 0 0.00 0  
Hereford 2NW  03:15 AM 38 27 65% SW912 18 mph 229° @ 1230 AM 42 38 65 54 30.14" 0 0.00 0  
Hobbs NM 5NW  03:15 AM 35 28 76% SW77 12 mph 199° @ 0109 AM 40 35 76 64 30.24" 0 0.00 0 29
Jayton 1SSE  03:15 AM 40 32 76% SW78 11 mph 217° @ 0100 AM 42 40 76 68 30.20" 0 0.00 0  
Junction 1SSW  03:15 AM 39 32 77% S56 8 mph 181° @ 0128 AM 43 38 78 66 30.31" 0 0.00 0  
Knox City 3NW  03:15 AM 36 31 80% S45 14 mph 195° @ 0135 AM 44 36 80 66 30.20" 0 0.00 0  
Lake Alan Henry 1NW  03:16 AM 47 33 58% SW911 25 mph 231° @ 0152 AM 51 44 62 49 30.19" 0 0.00 0  
Lamesa 2SE  03:15 AM 33 29 86% SW55 14 mph 202° @ 1225 AM 43 33 86 65 30.23" 0 0.00 0  
Levelland 4S  03:15 AM 35 27 72% SW810 16 mph 224° @ 0200 AM 40 35 72 61 30.20" 0 0.00 0 28
Lomax 1SSE  03:15 AM 47 35 62% S1315 20 mph 197° @ 0245 AM 48 45 65 55 30.23" 0 0.00 0  
Lubbock 3WNW TTU  03:15 AM 43 29 57% SW1319 23 mph 222° @ 0210 AM 48 43 57 46 30.19" 0 0.00 0  
McLean 1E  03:15 AM 39 29 67% SW1012 19 mph 201° @ 0115 AM 42 38 70 62 30.09" 0 0.00 0  
Memphis 1NE  03:15 AM 29 26 89% S11 6 mph 174° @ 1210 AM 34 29 89 76 30.14" 0 0.00 0  
Menard 2NW   03:15 AM 42 33 69% S33 10 mph 197° @ 0226 AM 44 40 73 65 30.30" 0 0.00 0  
Mertzon 3NNE  03:16 AM 45 34 65% S1417 20 mph 199° @ 0149 AM 49 44 65 54 30.26" 0 0.00 0  
Morton 1ENE  03:15 AM 41 29 61% SW1318 22 mph 219° @ 1255 AM 44 41 61 55 30.19" 0 0.00 0  
Muleshoe 2SSW  03:15 AM 27 24 88% W56 9 mph 264° @ 0140 AM 32 27 89 77 30.18" 0 0.00 0 21
Northfield 1S  03:15 AM 44 32 64% SW68 13 mph 210° @ 0250 AM 44 39 75 64 30.14" 0 0.00 0  
O'Donnell 1N  03:15 AM 35 30 82% SW910 15 mph 205° @ 1205 AM 45 35 83 56 30.22" 0 0.00 0 28
Odell 4ENE  03:15 AM 39 33 77% S1012 15 mph 165° @ 0132 AM 42 39 78 66 30.19" 0 0.00 0  
Olton 6S  03:15 AM 38 28 70% SW1214 15 mph 239° @ 0310 AM 39 35 75 66 30.17" 0 0.00 0  
Paducah 10SW  03:15 AM 46 33 60% SW1823 23 mph 208° @ 0315 AM 46 38 79 60 30.14" 0 0.00 0  
Palo Duro Canyon State Park  03:16 AM 45 28 50% SW79 20 mph 236° @ 0157 AM 46 41 58 49 30.14" 0 0.00 0  
Pampa 2E  03:15 AM 45 29 55% SW1523 29 mph 224° @ 0205 AM 47 44 60 50 30.08" 0 0.00 0  
Plains 3N  03:15 AM 36 28 73% SW1112 13 mph 220° @ 1240 AM 40 36 73 61 30.21" 0 0.00 0  
Plainview 1S  03:15 AM 35 29 78% SW913 13 mph 244° @ 0315 AM 39 35 79 70 30.16" 0 0.00 0 28
Post 1NE  03:15 AM 46 32 57% SW1927 27 mph 227° @ 0315 AM 51 46 57 45 30.17" 0 0.00 0  
Ralls 1SE  03:15 AM 43 31 61% SW1419 19 mph 233° @ 0310 AM 43 39 71 59 30.18" 0 0.00 0  
Reese Center  03:15 AM 40 29 65% SW1418 20 mph 217° @ 0145 AM 43 40 65 56 30.18" 0 0.00 0  
Roaring Springs 3N  03:15 AM 47 32 56% SW1622 24 mph 219° @ 0245 AM 48 45 60 52 30.15" 0 0.00 0  
San Angelo 7NW  03:15 AM 44 32 63% SW35 6 mph 233° @ 0305 AM 44 37 77 61 30.27" 0 0.00 0  
Seagraves 1SW  03:15 AM 39 31 73% SW912 13 mph 229° @ 0305 AM 39 32 81 68 30.21" 0 0.00 0  
Seminole 2NNE  03:15 AM 39 31 74% SW68 15 mph 212° @ 1215 AM 46 37 75 52 30.22" 0 0.00 0  
Seymour 3NW  03:15 AM 41 33 74% S89 17 mph 168° @ 1205 AM 45 40 76 59 30.20" 0 0.00 0  
Silverton 7ESE  03:15 AM 40 29 65% SW1823 24 mph 237° @ 0145 AM 42 38 68 63 30.14" 0 0.00 0  
Slaton 2NE  03:15 AM 41 30 65% SW1720 26 mph 222° @ 0225 AM 43 40 68 61 30.18" 0 0.00 0  
Snyder 3E  03:15 AM 41 33 74% S1317 17 mph 187° @ 0105 AM 42 41 74 70 30.22" 0 0.00 0  
Spur 1W  03:15 AM 35 29 80% SW23 7 mph 232° @ 0115 AM 37 34 82 77 30.18" 0 0.00 0  
St. Lawrence 5SW  03:15 AM 46 33 61% S1518 21 mph 186° @ 0310 AM 46 43 62 60 30.24" 0 0.00 0  
Sterling City 4WSW  03:16 AM 47 34 59% S2025 28 mph 179° @ 0218 AM 49 47 59 52 30.24" 0 0.00 0  
Sundown 8WSW  03:15 AM 37 28 71% SW1113 16 mph 228° @ 0200 AM 39 34 74 67 30.20" 0 0.00 0  
Sweetwater 11SW   03:15 AM 45 34 64% SW1116 23 mph 185° @ 0155 AM 48 45 64 53 30.23" 0 0.00 0  
Tahoka 3NNE  03:15 AM 37 28 70% SW910 18 mph 209° @ 1254 AM 44 37 70 55 30.20" 0 0.00 0  
Tarzan 2WNW  03:15 AM 39 33 77% SW78 15 mph 188° @ 1207 AM 46 39 77 59 30.23" 0 0.00 0  
Tatum NM 2SW  03:15 AM 32 26 78% SW79 16 mph 211° @ 1210 AM 40 32 78 62 30.21" 0 0.00 0 25
Tulia 2ENE  03:15 AM 42 30 63% SW1924 24 mph 238° @ 0315 AM 42 38 70 63 30.14" 0 0.00 0  
Turkey 2WSW  03:15 AM 47 30 52% SW1621 23 mph 212° @ 0110 AM 49 38 75 51 30.11" 0 0.00 0  
Umbarger 3NNE  03:15 AM 40 28 61% SW1417 23 mph 218° @ 0106 AM 43 40 61 54 30.13" 0 0.00 0  
Wall 1E  03:15 AM 47 34 63% SW810 13 mph 196° @ 1210 AM 49 44 63 53 30.26" 0 0.00 0  
Weinert 2NNE  03:16 AM 38 32 80% S56 13 mph 181° @ 0156 AM 42 38 80 69 30.21" 0 0.00 0  
White River Lake 6NW  03:15 AM 45 31 58% SW1318 23 mph 215° @ 0205 AM 48 43 64 51 30.17" 0 0.00 0  
Wolfforth 6SSW  03:15 AM 39 28 66% SW1115 17 mph 220° @ 0140 AM 45 39 67 53 30.20" 0 0.00 0  

West Texas Mesonet Home   Site Map/Menu  NWS Lubbock Soil Data  Daily Summary Page  24hr Precip  72hr Precip  Google Plot